createdAt,value
2023-01-07T00:00:01.902Z,9.98
2023-01-07T00:02:34.504Z,9.90
2023-01-07T00:05:07.352Z,9.87
2023-01-07T00:07:40.047Z,9.78
2023-01-07T00:10:12.620Z,9.80
2023-01-07T00:12:45.202Z,9.89
2023-01-07T00:15:17.854Z,9.65
2023-01-07T00:17:50.517Z,9.87
2023-01-07T00:20:23.073Z,9.87
2023-01-07T00:22:55.649Z,9.78
2023-01-07T00:25:29.001Z,9.92
2023-01-07T00:28:01.978Z,9.94
2023-01-07T00:30:34.655Z,9.79
2023-01-07T00:33:07.319Z,9.88
2023-01-07T00:35:40.935Z,9.80
2023-01-07T00:38:13.547Z,9.82
2023-01-07T00:40:46.176Z,9.90
2023-01-07T00:43:18.903Z,9.68
2023-01-07T00:45:51.660Z,9.71
2023-01-07T00:48:24.395Z,9.76
2023-01-07T00:50:57.105Z,9.83
2023-01-07T00:53:30.329Z,9.92
2023-01-07T00:56:02.874Z,9.76
2023-01-07T00:58:35.512Z,9.80
2023-01-07T01:01:09.730Z,9.90
2023-01-07T01:03:42.479Z,9.81
2023-01-07T01:06:16.593Z,9.87
2023-01-07T01:08:49.229Z,9.92
2023-01-07T01:11:21.893Z,9.73
2023-01-07T01:13:54.593Z,9.58
2023-01-07T01:16:27.400Z,9.73
2023-01-07T01:19:00.036Z,9.69
2023-01-07T01:21:32.665Z,9.66
2023-01-07T01:24:05.516Z,9.52
2023-01-07T01:26:38.128Z,9.37
2023-01-07T01:29:10.615Z,9.57
2023-01-07T01:31:43.221Z,9.46
2023-01-07T01:34:16.234Z,9.49
2023-01-07T01:36:48.772Z,9.44
2023-01-07T01:39:22.476Z,9.50
2023-01-07T01:41:55.325Z,9.40
2023-01-07T01:44:47.184Z,9.45
2023-01-07T01:47:54.461Z,9.35
2023-01-07T01:50:35.031Z,9.41
2023-01-07T01:53:19.132Z,9.50
2023-01-07T01:56:04.505Z,9.46
2023-01-07T01:58:55.383Z,9.36
2023-01-07T02:01:28.493Z,9.47
2023-01-07T02:04:05.084Z,9.39
2023-01-07T02:06:46.615Z,9.42
2023-01-07T02:09:19.344Z,9.43
2023-01-07T02:12:18.696Z,9.51
2023-01-07T02:15:00.262Z,9.40
2023-01-07T02:18:08.455Z,9.42
2023-01-07T02:21:08.956Z,9.28
2023-01-07T02:23:59.615Z,9.42
2023-01-07T02:27:07.332Z,9.33
2023-01-07T02:30:35.276Z,9.42
2023-01-07T02:33:10.426Z,9.12
2023-01-07T02:36:26.163Z,9.27
2023-01-07T02:39:37.198Z,9.21
2023-01-07T02:42:32.415Z,9.16
2023-01-07T02:45:15.571Z,9.28
2023-01-07T02:47:55.974Z,9.27
2023-01-07T02:50:28.731Z,9.27
2023-01-07T02:53:01.369Z,9.22
2023-01-07T02:55:55.539Z,9.45
2023-01-07T02:58:34.115Z,9.41
2023-01-07T03:01:25.334Z,9.56
2023-01-07T03:04:41.561Z,9.57
2023-01-07T03:07:28.880Z,9.79
2023-01-07T03:10:20.565Z,9.74
2023-01-07T03:13:14.320Z,9.89
2023-01-07T03:15:57.440Z,9.74
2023-01-07T03:18:36.234Z,9.73
2023-01-07T03:21:16.811Z,9.87
2023-01-07T03:23:55.079Z,9.89
2023-01-07T03:26:35.361Z,10.00
2023-01-07T03:29:13.378Z,9.99
2023-01-07T03:32:24.921Z,9.93
2023-01-07T03:34:58.034Z,10.10
2023-01-07T03:37:33.556Z,9.90
2023-01-07T03:40:10.758Z,10.11
2023-01-07T03:42:49.021Z,10.07
2023-01-07T03:45:25.052Z,9.92
2023-01-07T03:47:57.981Z,10.05
2023-01-07T03:50:30.584Z,9.99
2023-01-07T03:53:04.337Z,10.05
2023-01-07T03:55:38.590Z,10.07
2023-01-07T03:58:11.182Z,10.16
2023-01-07T04:00:43.895Z,10.07
2023-01-07T04:03:16.472Z,10.00
2023-01-07T04:05:49.168Z,10.01
2023-01-07T04:08:21.681Z,9.99
2023-01-07T04:10:54.316Z,10.18
2023-01-07T04:13:26.996Z,10.12
2023-01-07T04:15:59.614Z,10.05
2023-01-07T04:18:32.249Z,9.99
2023-01-07T04:21:04.836Z,10.05
2023-01-07T04:23:37.476Z,10.10
2023-01-07T04:26:10.263Z,9.88
2023-01-07T04:28:42.841Z,9.91
2023-01-07T04:31:15.382Z,9.86
2023-01-07T04:33:47.978Z,9.91
2023-01-07T04:36:20.747Z,9.79
2023-01-07T04:38:53.368Z,9.62
2023-01-07T04:41:26.006Z,9.68
2023-01-07T04:43:58.548Z,9.65
2023-01-07T04:46:31.648Z,9.57
2023-01-07T04:49:04.584Z,9.57
2023-01-07T04:51:37.236Z,9.62
2023-01-07T04:54:09.794Z,9.58
2023-01-07T04:56:42.443Z,9.58
2023-01-07T04:59:15.215Z,9.64
2023-01-07T05:01:47.902Z,9.62
2023-01-07T05:04:20.505Z,9.44
2023-01-07T05:06:53.140Z,9.61
2023-01-07T05:09:26.090Z,9.52
2023-01-07T05:11:58.632Z,9.62
2023-01-07T05:14:31.222Z,9.55
2023-01-07T05:17:03.958Z,9.50
2023-01-07T05:19:36.587Z,9.47
2023-01-07T05:22:09.061Z,9.37
2023-01-07T05:24:41.633Z,9.54
2023-01-07T05:27:14.345Z,9.38
2023-01-07T05:29:46.890Z,9.40
2023-01-07T05:32:19.552Z,9.37
2023-01-07T05:34:52.030Z,9.36
2023-01-07T05:37:24.880Z,9.34
2023-01-07T05:39:57.387Z,9.47
2023-01-07T05:42:30.004Z,9.50
2023-01-07T05:45:02.573Z,9.60
2023-01-07T05:47:35.452Z,9.48
2023-01-07T05:50:08.316Z,9.53
2023-01-07T05:52:40.847Z,9.72
2023-01-07T05:55:13.503Z,9.66
2023-01-07T05:57:46.037Z,9.84
2023-01-07T06:00:18.933Z,9.88
2023-01-07T06:02:51.501Z,9.77
2023-01-07T06:05:24.206Z,9.87
2023-01-07T06:07:56.747Z,9.81
2023-01-07T06:10:29.408Z,10.02
2023-01-07T06:13:04.690Z,9.92
2023-01-07T06:15:37.333Z,10.02
2023-01-07T06:18:11.347Z,9.98
2023-01-07T06:20:43.971Z,9.96
2023-01-07T06:23:16.517Z,10.04
2023-01-07T06:25:49.659Z,9.98
2023-01-07T06:28:22.219Z,9.80
2023-01-07T06:30:54.741Z,9.96
2023-01-07T06:33:27.282Z,10.02
2023-01-07T06:35:59.788Z,9.93
2023-01-07T06:38:32.275Z,9.89
2023-01-07T06:41:05.197Z,9.94
2023-01-07T06:43:37.690Z,9.82
2023-01-07T06:46:10.419Z,10.00
2023-01-07T06:48:43.010Z,9.95
2023-01-07T06:51:15.520Z,9.92
2023-01-07T06:53:48.047Z,9.96
2023-01-07T06:56:20.719Z,9.88
2023-01-07T06:58:53.285Z,9.86
2023-01-07T07:01:25.958Z,9.99
2023-01-07T07:03:58.586Z,10.09
2023-01-07T07:06:31.274Z,10.08
2023-01-07T07:09:03.911Z,9.84
2023-01-07T07:11:36.457Z,9.82
2023-01-07T07:14:09.532Z,9.98
2023-01-07T07:16:42.085Z,10.08
2023-01-07T07:19:14.637Z,9.92
2023-01-07T07:21:47.842Z,9.85
2023-01-07T07:24:20.506Z,9.95
2023-01-07T07:26:53.352Z,9.87
2023-01-07T07:29:25.882Z,9.92
2023-01-07T07:31:58.509Z,9.82
2023-01-07T07:34:31.150Z,9.95
2023-01-07T07:37:04.010Z,9.69
2023-01-07T07:39:36.498Z,9.91
2023-01-07T07:42:11.196Z,9.86
2023-01-07T07:44:43.643Z,9.79
2023-01-07T07:47:17.097Z,9.88
2023-01-07T07:49:51.016Z,9.91
2023-01-07T07:52:23.702Z,9.70
2023-01-07T07:54:56.419Z,9.81
2023-01-07T07:57:48.947Z,9.61
2023-01-07T08:00:21.842Z,9.82
2023-01-07T08:02:58.666Z,9.82
2023-01-07T08:05:31.623Z,9.80
2023-01-07T08:08:04.524Z,9.89
2023-01-07T08:10:38.060Z,9.60
2023-01-07T08:13:10.659Z,9.81
2023-01-07T08:15:43.152Z,9.69
2023-01-07T08:18:15.729Z,9.88
2023-01-07T08:20:48.300Z,9.84
2023-01-07T08:23:20.853Z,9.97
2023-01-07T08:25:53.901Z,9.95
2023-01-07T08:28:26.721Z,10.10
2023-01-07T08:31:04.516Z,10.08
2023-01-07T08:33:38.592Z,10.20
2023-01-07T08:36:21.738Z,10.30
2023-01-07T08:38:55.753Z,10.29
2023-01-07T08:41:28.511Z,10.12
2023-01-07T08:44:01.039Z,10.28
2023-01-07T08:46:33.584Z,10.32
2023-01-07T08:49:06.121Z,10.51
2023-01-07T08:51:38.751Z,10.47
2023-01-07T08:54:11.393Z,10.39
2023-01-07T08:56:44.359Z,10.53
2023-01-07T08:59:16.889Z,10.38
2023-01-07T09:01:49.537Z,10.59
2023-01-07T09:04:22.132Z,10.49
2023-01-07T09:06:54.640Z,10.58
2023-01-07T09:09:27.224Z,10.55
2023-01-07T09:12:00.268Z,10.60
2023-01-07T09:14:32.840Z,10.58
2023-01-07T09:17:05.579Z,10.52
2023-01-07T09:19:38.289Z,10.60
2023-01-07T09:22:10.875Z,10.67
2023-01-07T09:24:47.106Z,10.57
2023-01-07T09:27:22.507Z,10.74
2023-01-07T09:29:58.394Z,10.64
2023-01-07T09:32:30.849Z,10.85
2023-01-07T09:35:05.301Z,10.92
2023-01-07T09:37:37.969Z,10.95
2023-01-07T09:40:25.058Z,11.07
2023-01-07T09:43:18.556Z,10.95
2023-01-07T09:45:57.069Z,11.09
2023-01-07T09:48:51.323Z,11.11
2023-01-07T09:51:41.135Z,11.24
2023-01-07T09:54:25.947Z,11.31
2023-01-07T09:56:58.957Z,11.16
2023-01-07T09:59:32.361Z,11.28
2023-01-07T10:02:42.378Z,11.13
2023-01-07T10:05:39.009Z,11.19
2023-01-07T10:09:07.440Z,11.28
2023-01-07T10:12:04.279Z,11.23
2023-01-07T10:15:05.093Z,11.21
2023-01-07T10:18:31.467Z,11.31
2023-01-07T10:21:23.107Z,11.23
2023-01-07T10:24:04.061Z,11.12
2023-01-07T10:26:43.425Z,11.06
2023-01-07T10:29:56.597Z,11.27
2023-01-07T10:32:36.567Z,11.15
2023-01-07T10:35:17.398Z,11.27
2023-01-07T10:37:50.537Z,11.09
2023-01-07T10:40:57.517Z,11.37
2023-01-07T10:44:31.110Z,11.32
2023-01-07T10:47:29.867Z,11.38
2023-01-07T10:50:57.102Z,11.27
2023-01-07T10:54:09.107Z,11.49
2023-01-07T10:56:57.983Z,11.58
2023-01-07T10:59:30.560Z,11.33
2023-01-07T11:02:05.272Z,11.49
2023-01-07T11:04:38.005Z,11.43
2023-01-07T11:07:28.225Z,11.49
2023-01-07T11:10:05.539Z,11.55
2023-01-07T11:12:48.494Z,11.54
2023-01-07T11:15:32.336Z,11.84
2023-01-07T11:18:21.725Z,11.90
2023-01-07T11:20:58.275Z,11.60
2023-01-07T11:23:43.943Z,11.76
2023-01-07T11:26:31.129Z,11.90
2023-01-07T11:29:29.404Z,11.83
2023-01-07T11:32:03.944Z,11.73
2023-01-07T11:34:50.281Z,11.84
2023-01-07T11:37:42.570Z,11.74
2023-01-07T11:40:15.095Z,11.48
2023-01-07T11:42:59.877Z,11.65
2023-01-07T11:45:38.459Z,11.75
2023-01-07T11:48:31.545Z,11.64
2023-01-07T11:51:10.974Z,11.67
2023-01-07T11:53:55.747Z,11.15
2023-01-07T11:56:33.152Z,11.46
2023-01-07T11:59:11.991Z,11.43
2023-01-07T12:01:46.897Z,11.53
2023-01-07T12:04:24.672Z,11.56
2023-01-07T12:07:05.426Z,11.49
2023-01-07T12:09:41.841Z,11.67
2023-01-07T12:12:31.711Z,11.71
2023-01-07T12:15:32.256Z,11.58
2023-01-07T12:18:09.137Z,11.82
2023-01-07T12:21:02.759Z,11.71
2023-01-07T12:23:53.680Z,11.75
2023-01-07T12:26:35.173Z,11.67
2023-01-07T12:29:25.854Z,11.82
2023-01-07T12:32:22.140Z,11.99
2023-01-07T12:35:15.935Z,11.83
2023-01-07T12:38:15.941Z,11.91
2023-01-07T12:40:59.125Z,11.86
2023-01-07T12:43:41.818Z,12.16
2023-01-07T12:46:19.691Z,11.92
2023-01-07T12:49:25.728Z,12.05
2023-01-07T12:52:44.430Z,12.06
2023-01-07T12:55:26.347Z,12.05
2023-01-07T12:58:50.215Z,11.90
2023-01-07T13:01:36.333Z,11.71
2023-01-07T13:04:21.160Z,11.68
2023-01-07T13:07:27.718Z,11.69
2023-01-07T13:10:23.582Z,11.58
2023-01-07T13:13:02.808Z,11.59
2023-01-07T13:15:40.219Z,11.49
2023-01-07T13:18:21.268Z,11.73
2023-01-07T13:21:02.784Z,11.52
2023-01-07T13:24:11.364Z,11.58
2023-01-07T13:26:56.512Z,11.51
2023-01-07T13:29:54.815Z,11.60
2023-01-07T13:32:36.979Z,11.49
2023-01-07T13:35:48.823Z,11.51
2023-01-07T13:38:30.412Z,11.82
2023-01-07T13:41:37.236Z,11.56
2023-01-07T13:44:43.393Z,11.56
2023-01-07T13:47:22.493Z,11.34
2023-01-07T13:50:00.461Z,11.71
2023-01-07T13:52:34.333Z,11.61
2023-01-07T13:55:32.563Z,11.38
2023-01-07T13:58:47.437Z,11.74
2023-01-07T14:01:21.509Z,11.39
2023-01-07T14:04:03.845Z,11.43
2023-01-07T14:06:47.899Z,11.59
2023-01-07T14:09:27.796Z,11.66
2023-01-07T14:12:41.810Z,11.48
2023-01-07T14:15:45.669Z,11.46
2023-01-07T14:18:39.382Z,11.21
2023-01-07T14:21:32.206Z,11.51
2023-01-07T14:24:32.189Z,11.41
2023-01-07T14:27:29.108Z,11.38
2023-01-07T14:30:22.434Z,11.23
2023-01-07T14:33:07.239Z,11.23
2023-01-07T14:35:42.961Z,11.42
2023-01-07T14:38:33.900Z,11.18
2023-01-07T14:41:17.949Z,11.20
2023-01-07T14:44:04.712Z,11.34
2023-01-07T14:46:37.265Z,11.44
2023-01-07T14:49:57.437Z,11.27
2023-01-07T14:53:05.304Z,11.10
2023-01-07T14:56:13.207Z,11.24
2023-01-07T14:59:15.098Z,11.19
2023-01-07T15:02:37.099Z,11.22
2023-01-07T15:05:43.068Z,11.17
2023-01-07T15:08:40.607Z,11.11
2023-01-07T15:11:43.018Z,10.95
2023-01-07T15:14:54.537Z,11.17
2023-01-07T15:17:27.529Z,11.17
2023-01-07T15:20:05.651Z,11.13
2023-01-07T15:23:10.494Z,11.04
2023-01-07T15:26:15.823Z,10.98
2023-01-07T15:29:09.372Z,11.05
2023-01-07T15:31:56.974Z,10.83
2023-01-07T15:34:33.432Z,10.92
2023-01-07T15:37:08.638Z,10.93
2023-01-07T15:39:50.128Z,10.86
2023-01-07T15:42:27.497Z,11.11
2023-01-07T15:45:00.529Z,10.93
2023-01-07T15:47:41.766Z,10.86
2023-01-07T15:50:37.184Z,10.91
2023-01-07T15:53:12.388Z,10.94
2023-01-07T15:56:10.200Z,11.02
2023-01-07T15:58:45.727Z,10.87
2023-01-07T16:01:24.955Z,10.68
2023-01-07T16:03:57.808Z,10.83
2023-01-07T16:06:38.541Z,10.69
2023-01-07T16:09:21.516Z,10.74
2023-01-07T16:11:54.655Z,10.46
2023-01-07T16:14:27.303Z,10.70
2023-01-07T16:17:16.489Z,10.63
2023-01-07T16:19:49.384Z,10.60
2023-01-07T16:22:26.084Z,10.58
2023-01-07T16:24:59.775Z,10.65
2023-01-07T16:27:32.469Z,10.58
2023-01-07T16:30:06.060Z,10.58
2023-01-07T16:32:38.987Z,10.52
2023-01-07T16:35:20.645Z,10.71
2023-01-07T16:37:54.633Z,10.64
2023-01-07T16:40:39.593Z,10.37
2023-01-07T16:43:43.522Z,10.59
2023-01-07T16:46:34.765Z,10.50
2023-01-07T16:49:26.741Z,10.53
2023-01-07T16:52:18.215Z,10.14
2023-01-07T16:54:51.869Z,10.51
2023-01-07T16:57:41.560Z,10.28
2023-01-07T17:00:20.157Z,10.30
2023-01-07T17:02:56.845Z,10.18
2023-01-07T17:05:32.306Z,10.14
2023-01-07T17:08:16.362Z,10.02
2023-01-07T17:10:59.519Z,9.99
2023-01-07T17:13:36.763Z,9.90
2023-01-07T17:16:29.010Z,9.96
2023-01-07T17:19:26.104Z,9.77
2023-01-07T17:21:59.873Z,9.69
2023-01-07T17:24:46.792Z,9.69
2023-01-07T17:27:29.985Z,9.52
2023-01-07T17:30:05.616Z,9.55
2023-01-07T17:32:42.187Z,9.64
2023-01-07T17:35:24.621Z,9.56
2023-01-07T17:37:57.215Z,9.62
2023-01-07T17:40:29.845Z,9.60
2023-01-07T17:43:21.044Z,9.52
2023-01-07T17:45:53.678Z,9.48
2023-01-07T17:48:26.499Z,9.61
2023-01-07T17:51:01.250Z,9.48
2023-01-07T17:53:45.924Z,9.63
2023-01-07T17:56:20.512Z,9.40
2023-01-07T17:58:55.890Z,9.59
2023-01-07T18:01:30.854Z,9.39
2023-01-07T18:04:03.546Z,9.54
2023-01-07T18:06:37.621Z,9.51
2023-01-07T18:09:11.301Z,9.39
2023-01-07T18:12:05.098Z,9.51
2023-01-07T18:14:37.823Z,9.43
2023-01-07T18:17:10.325Z,9.53
2023-01-07T18:19:42.933Z,9.40
2023-01-07T18:22:15.664Z,9.35
2023-01-07T18:24:49.482Z,9.41
2023-01-07T18:27:22.532Z,9.28
2023-01-07T18:29:55.910Z,9.48
2023-01-07T18:32:28.577Z,9.45
2023-01-07T18:35:01.164Z,9.21
2023-01-07T18:37:33.947Z,9.22
2023-01-07T18:40:09.652Z,9.27
2023-01-07T18:42:43.278Z,9.40
2023-01-07T18:45:15.936Z,9.28
2023-01-07T18:47:49.614Z,9.38
2023-01-07T18:50:22.212Z,9.54
2023-01-07T18:52:54.726Z,9.47
2023-01-07T18:55:29.383Z,9.61
2023-01-07T18:58:02.082Z,9.58
2023-01-07T19:00:34.997Z,9.57
2023-01-07T19:03:07.878Z,9.67
2023-01-07T19:05:41.117Z,9.64
2023-01-07T19:08:13.670Z,9.58
2023-01-07T19:10:47.910Z,9.73
2023-01-07T19:13:20.360Z,9.80
2023-01-07T19:15:52.839Z,9.82
2023-01-07T19:18:25.353Z,9.69
2023-01-07T19:21:06.323Z,9.81
2023-01-07T19:23:40.087Z,10.03
2023-01-07T19:26:12.660Z,9.95
2023-01-07T19:28:45.813Z,9.85
2023-01-07T19:31:18.346Z,10.09
2023-01-07T19:33:51.026Z,9.88
2023-01-07T19:36:23.942Z,10.11
2023-01-07T19:38:56.559Z,9.98
2023-01-07T19:41:29.072Z,10.14
2023-01-07T19:44:02.127Z,10.20
2023-01-07T19:46:37.881Z,9.97
2023-01-07T19:49:12.043Z,10.10
2023-01-07T19:51:44.777Z,10.19
2023-01-07T19:54:17.816Z,10.13
2023-01-07T19:56:50.350Z,10.08
2023-01-07T19:59:23.187Z,10.14
2023-01-07T20:01:57.023Z,10.20
2023-01-07T20:04:30.031Z,10.24
2023-01-07T20:07:02.741Z,10.11
2023-01-07T20:09:35.278Z,10.08
2023-01-07T20:12:08.522Z,10.08
2023-01-07T20:14:42.807Z,10.01
2023-01-07T20:17:15.358Z,10.22
2023-01-07T20:19:47.867Z,10.14
2023-01-07T20:22:20.401Z,9.72
2023-01-07T20:24:52.980Z,10.02
2023-01-07T20:27:25.441Z,9.97
2023-01-07T20:29:57.971Z,10.02
2023-01-07T20:32:30.549Z,10.05
2023-01-07T20:35:03.116Z,9.87
2023-01-07T20:37:35.849Z,9.92
2023-01-07T20:40:09.151Z,9.73
2023-01-07T20:42:41.942Z,9.87
2023-01-07T20:45:14.729Z,9.90
2023-01-07T20:47:47.321Z,10.01
2023-01-07T20:50:19.897Z,9.94
2023-01-07T20:52:52.604Z,9.85
2023-01-07T20:55:25.174Z,9.93
2023-01-07T20:57:57.779Z,9.88
2023-01-07T21:00:30.337Z,9.98
2023-01-07T21:03:03.181Z,9.95
2023-01-07T21:05:37.611Z,10.00
2023-01-07T21:08:10.683Z,9.81
2023-01-07T21:10:43.656Z,9.94
2023-01-07T21:13:16.223Z,9.95
2023-01-07T21:15:49.466Z,9.87
2023-01-07T21:18:22.098Z,10.09
2023-01-07T21:20:54.631Z,10.13
2023-01-07T21:23:27.550Z,10.15
2023-01-07T21:26:00.046Z,10.26
2023-01-07T21:28:34.779Z,10.07
2023-01-07T21:31:13.426Z,10.00
2023-01-07T21:33:45.993Z,10.04
2023-01-07T21:36:19.324Z,10.14
2023-01-07T21:38:55.624Z,9.85
2023-01-07T21:41:29.186Z,9.79
2023-01-07T21:44:01.677Z,9.96
2023-01-07T21:46:34.223Z,10.05
2023-01-07T21:49:08.119Z,9.97
2023-01-07T21:51:40.672Z,10.01
2023-01-07T21:54:13.267Z,10.17
2023-01-07T21:56:46.341Z,9.99
2023-01-07T21:59:20.836Z,9.92
2023-01-07T22:01:53.627Z,9.94
2023-01-07T22:04:27.005Z,9.93
2023-01-07T22:06:59.555Z,10.09
2023-01-07T22:09:32.155Z,10.02
2023-01-07T22:12:04.805Z,10.10
2023-01-07T22:14:38.080Z,9.86
2023-01-07T22:17:11.516Z,10.08
2023-01-07T22:19:44.153Z,9.95
2023-01-07T22:22:19.185Z,10.08
2023-01-07T22:24:51.697Z,9.96
2023-01-07T22:27:24.243Z,9.99
2023-01-07T22:29:57.637Z,9.94
2023-01-07T22:32:30.413Z,10.08
2023-01-07T22:35:03.067Z,9.98
2023-01-07T22:37:36.509Z,9.73
2023-01-07T22:40:10.055Z,9.61
2023-01-07T22:42:55.827Z,9.75
2023-01-07T22:46:00.498Z,9.89
2023-01-07T22:48:36.379Z,9.83
2023-01-07T22:51:19.895Z,9.97
2023-01-07T22:53:56.583Z,9.71
2023-01-07T22:56:29.509Z,9.94
2023-01-07T22:59:02.186Z,9.99
2023-01-07T23:01:34.940Z,9.98
2023-01-07T23:04:07.817Z,10.16
2023-01-07T23:06:40.428Z,10.12
2023-01-07T23:09:13.058Z,10.11
2023-01-07T23:11:48.424Z,10.13
2023-01-07T23:14:23.276Z,10.12
2023-01-07T23:16:57.247Z,10.13
2023-01-07T23:19:31.983Z,9.87
2023-01-07T23:22:05.104Z,10.10
2023-01-07T23:24:37.892Z,9.93
2023-01-07T23:27:10.449Z,9.85
2023-01-07T23:29:42.946Z,9.89
2023-01-07T23:32:15.713Z,9.81
2023-01-07T23:34:48.388Z,9.90
2023-01-07T23:37:20.984Z,9.77
2023-01-07T23:39:53.528Z,9.90
2023-01-07T23:42:26.061Z,9.85
2023-01-07T23:44:59.007Z,9.81
2023-01-07T23:47:31.561Z,9.88
2023-01-07T23:50:04.606Z,9.69
2023-01-07T23:52:37.112Z,9.73
2023-01-07T23:55:10.593Z,9.95
2023-01-07T23:57:43.210Z,9.92
